Time;durP1;ratioP1;P1;durP2;ratioP2;P2;SDS_P1;SDS_P2;PMS_P1;PMS_P2;Temp;Humidity;BMP_temperature;BMP_pressure;BME280_temperature;BME280_humidity;BME280_pressure;Samples;Min_cycle;Max_cycle;Signal;HPM_P1;HPM_P2
2023/03/14 00:02:20;;;;;;;0.80;0.35;;;9.90;99.90;;;;;;4975659;28;20081;-34
2023/03/14 00:04:46;;;;;;;0.30;0.30;;;10.00;99.90;;;;;;4968592;28;20484;-33
2023/03/14 00:07:12;;;;;;;0.28;0.28;;;9.90;99.90;;;;;;4963816;28;20348;-32
2023/03/14 00:09:38;;;;;;;1.23;0.40;;;9.90;99.90;;;;;;4968540;28;20030;-34
2023/03/14 00:12:04;;;;;;;0.50;0.50;;;9.90;99.90;;;;;;4967119;28;20539;-33
2023/03/14 00:14:31;;;;;;;0.47;0.45;;;9.90;99.90;;;;;;4964874;28;20073;-33
2023/03/14 00:16:56;;;;;;;0.40;0.40;;;9.90;99.90;;;;;;4961947;28;20453;-34
2023/03/14 00:19:22;;;;;;;0.30;0.30;;;9.90;99.90;;;;;;4961885;28;20090;-32
2023/03/14 00:21:48;;;;;;;0.40;0.40;;;9.80;99.90;;;;;;4966846;28;20057;-30
2023/03/14 00:24:13;;;;;;;1.80;0.70;;;9.80;99.90;;;;;;4968187;28;20339;-31
2023/03/14 00:26:39;;;;;;;0.35;0.35;;;9.80;99.90;;;;;;4966260;28;20449;-34
2023/03/14 00:29:05;;;;;;;0.40;0.40;;;9.80;99.90;;;;;;4962292;28;20584;-33
2023/03/14 00:31:30;;;;;;;0.35;0.35;;;9.80;99.90;;;;;;4962944;28;20042;-34
2023/03/14 00:33:56;;;;;;;0.35;0.35;;;9.80;99.90;;;;;;4958118;28;20112;-32
2023/03/14 00:36:23;;;;;;;0.95;0.30;;;9.80;99.90;;;;;;4960229;28;20174;-30
2023/03/14 00:38:51;;;;;;;0.30;0.30;;;9.70;99.90;;;;;;4968504;28;20433;-31
2023/03/14 00:41:22;;;;;;;0.30;0.30;;;9.70;99.90;;;;;;4960464;28;20031;-33
2023/03/14 00:43:48;;;;;;;0.38;0.38;;;9.70;99.90;;;;;;4981201;28;20286;-33
2023/03/14 00:46:14;;;;;;;0.28;0.20;;;9.60;99.90;;;;;;4972663;28;20315;-34
2023/03/14 00:48:40;;;;;;;0.40;0.40;;;9.70;99.90;;;;;;4965724;28;20497;-32
2023/03/14 00:51:08;;;;;;;0.43;0.43;;;9.70;99.90;;;;;;4967174;28;20580;-34
2023/03/14 00:53:38;;;;;;;0.20;0.20;;;9.60;99.90;;;;;;4969363;28;20029;-32
2023/03/14 00:56:05;;;;;;;0.38;0.30;;;9.60;99.90;;;;;;4965067;28;20034;-35
2023/03/14 00:58:31;;;;;;;0.30;0.30;;;9.60;99.90;;;;;;4967346;28;20038;-33
2023/03/14 01:00:57;;;;;;;0.20;0.20;;;9.60;99.90;;;;;;4965072;28;20038;-34
2023/03/14 01:03:23;;;;;;;0.20;0.20;;;9.50;99.90;;;;;;4969357;28;20054;-32
2023/03/14 01:05:49;;;;;;;0.55;0.20;;;9.50;99.90;;;;;;4959365;28;20090;-33
2023/03/14 01:08:15;;;;;;;0.32;0.30;;;9.50;99.90;;;;;;4962355;28;20035;-31
2023/03/14 01:10:41;;;;;;;1.35;0.45;;;9.50;99.90;;;;;;4968435;28;20031;-34
2023/03/14 01:13:08;;;;;;;0.30;0.30;;;9.50;99.90;;;;;;4960063;28;20031;-34
2023/03/14 01:15:35;;;;;;;0.30;0.30;;;9.40;99.90;;;;;;4967471;28;20035;-31
2023/03/14 01:18:00;;;;;;;0.80;0.32;;;9.30;99.90;;;;;;4963204;28;20165;-33
2023/03/14 01:20:26;;;;;;;0.40;0.38;;;9.40;99.90;;;;;;4966770;28;20105;-32
2023/03/14 01:22:51;;;;;;;0.30;0.30;;;9.40;99.90;;;;;;4963764;28;20552;-33
2023/03/14 01:25:17;;;;;;;0.40;0.40;;;9.40;99.90;;;;;;4963402;28;20037;-31
2023/03/14 01:27:43;;;;;;;0.30;0.30;;;9.30;99.90;;;;;;4965093;28;20034;-34
2023/03/14 01:30:10;;;;;;;0.47;0.40;;;9.30;99.90;;;;;;4973639;28;20389;-33
2023/03/14 01:32:36;;;;;;;0.32;0.30;;;9.30;99.90;;;;;;4965964;28;20035;-33
2023/03/14 01:35:03;;;;;;;1.08;0.32;;;9.20;99.90;;;;;;4965853;28;20038;-33
2023/03/14 01:37:29;;;;;;;0.85;0.30;;;9.20;99.90;;;;;;4966913;28;20404;-32
2023/03/14 01:39:54;;;;;;;0.40;0.40;;;9.10;99.90;;;;;;4961424;28;20031;-30
2023/03/14 01:42:20;;;;;;;0.90;0.30;;;9.10;99.90;;;;;;4968391;28;20047;-30
2023/03/14 01:44:53;;;;;;;0.30;0.30;;;9.10;99.90;;;;;;4969588;28;20039;-34
2023/03/14 01:47:19;;;;;;;0.20;0.20;;;9.10;99.90;;;;;;4961124;28;20031;-33
2023/03/14 01:49:48;;;;;;;0.40;0.40;;;9.10;99.90;;;;;;4965913;28;20045;-34
2023/03/14 01:52:15;;;;;;;0.35;0.35;;;9.00;99.90;;;;;;4964576;28;20023;-33
2023/03/14 01:54:45;;;;;;;0.20;0.20;;;9.10;99.90;;;;;;4968134;28;20050;-33
2023/03/14 01:57:17;;;;;;;0.30;0.30;;;9.00;99.90;;;;;;4967619;28;20120;-34
2023/03/14 01:59:56;;;;;;;0.30;0.30;;;9.00;99.90;;;;;;4960907;28;20116;-35
2023/03/14 02:02:24;;;;;;;0.30;0.30;;;9.00;99.90;;;;;;4961149;28;20039;-31
2023/03/14 02:04:51;;;;;;;0.30;0.30;;;9.00;99.90;;;;;;4964435;28;20038;-30
2023/03/14 02:07:23;;;;;;;1.60;0.30;;;9.00;99.90;;;;;;4963375;28;20416;-32
2023/03/14 02:09:49;;;;;;;0.40;0.40;;;9.00;99.90;;;;;;4966706;28;20039;-32
2023/03/14 02:12:17;;;;;;;0.20;0.20;;;9.00;99.90;;;;;;4964727;28;20058;-32
2023/03/14 02:14:47;;;;;;;1.52;0.40;;;9.10;99.90;;;;;;4963645;28;20032;-34
2023/03/14 02:17:15;;;;;;;1.17;0.30;;;9.10;99.90;;;;;;4969990;28;20057;-33
2023/03/14 02:20:17;;;;;;;0.35;0.35;;;9.10;99.90;;;;;;4963120;28;20043;-30
2023/03/14 02:22:45;;;;;;;0.47;0.47;;;9.00;99.90;;;;;;4963074;28;20066;-30
2023/03/14 02:25:22;;;;;;;0.55;0.50;;;9.00;99.90;;;;;;4964083;28;20034;-34
2023/03/14 02:27:48;;;;;;;0.40;0.40;;;9.00;99.90;;;;;;4958537;28;20043;-31
2023/03/14 02:30:21;;;;;;;0.82;0.40;;;9.00;99.90;;;;;;4969734;28;20057;-32
2023/03/14 02:32:53;;;;;;;0.32;0.32;;;9.00;99.90;;;;;;4962654;28;20074;-31
2023/03/14 02:35:22;;;;;;;0.57;0.30;;;9.00;99.90;;;;;;4963124;28;20034;-34
2023/03/14 02:37:53;;;;;;;0.57;0.57;;;9.00;99.90;;;;;;4962801;28;20129;-31
2023/03/14 02:40:19;;;;;;;0.73;0.40;;;9.00;99.90;;;;;;4965534;28;20030;-31
2023/03/14 02:42:45;;;;;;;0.50;0.50;;;9.00;99.90;;;;;;4962893;28;20051;-34
2023/03/14 02:45:10;;;;;;;0.45;0.38;;;9.00;99.90;;;;;;4963034;28;20863;-31
2023/03/14 02:47:59;;;;;;;0.60;0.60;;;9.00;99.90;;;;;;4968799;28;20531;-32
2023/03/14 02:50:28;;;;;;;0.30;0.30;;;9.00;99.90;;;;;;4964856;28;21008;-33
2023/03/14 02:52:54;;;;;;;0.40;0.40;;;9.00;99.90;;;;;;4962973;28;20428;-33
2023/03/14 02:55:21;;;;;;;0.40;0.40;;;8.90;99.90;;;;;;4963626;28;20023;-31
2023/03/14 02:57:46;;;;;;;0.50;0.50;;;8.90;99.90;;;;;;4965368;28;20057;-35
2023/03/14 03:00:12;;;;;;;0.30;0.30;;;8.90;99.90;;;;;;4962444;28;20568;-34
2023/03/14 03:02:38;;;;;;;0.30;0.30;;;8.90;99.90;;;;;;4968013;28;20490;-32
2023/03/14 03:05:05;;;;;;;0.50;0.50;;;8.90;99.90;;;;;;4966575;28;20087;-33
2023/03/14 03:07:30;;;;;;;1.42;0.60;;;8.90;99.90;;;;;;4964432;28;20031;-32
2023/03/14 03:09:56;;;;;;;0.32;0.32;;;8.90;99.90;;;;;;4967079;28;20054;-33
2023/03/14 03:12:21;;;;;;;0.40;0.40;;;8.90;99.90;;;;;;4975924;28;20065;-33
2023/03/14 03:14:47;;;;;;;0.40;0.40;;;8.90;99.90;;;;;;4968935;28;20041;-32
2023/03/14 03:17:12;;;;;;;0.30;0.30;;;8.90;99.90;;;;;;4964639;28;20066;-32
2023/03/14 03:19:38;;;;;;;0.20;0.20;;;8.80;99.90;;;;;;4971856;28;20059;-32
2023/03/14 03:22:04;;;;;;;0.40;0.40;;;8.90;99.90;;;;;;4973000;28;20043;-32
2023/03/14 03:24:29;;;;;;;0.30;0.30;;;8.90;99.90;;;;;;4966318;28;20111;-32
2023/03/14 03:26:55;;;;;;;0.43;0.43;;;8.80;99.90;;;;;;4960151;28;20539;-30
2023/03/14 03:29:20;;;;;;;0.30;0.30;;;8.90;99.90;;;;;;4969472;28;20039;-31
2023/03/14 03:31:46;;;;;;;0.38;0.30;;;8.80;99.90;;;;;;4962853;28;20037;-33
2023/03/14 03:34:13;;;;;;;0.30;0.30;;;8.80;99.90;;;;;;4966873;28;20035;-31
2023/03/14 03:36:38;;;;;;;0.45;0.45;;;8.80;99.90;;;;;;4965652;28;20109;-31
2023/03/14 03:39:04;;;;;;;0.30;0.30;;;8.80;99.90;;;;;;4969937;28;20114;-32
2023/03/14 03:41:30;;;;;;;0.30;0.30;;;8.80;99.90;;;;;;4966241;28;20138;-31
2023/03/14 03:43:56;;;;;;;0.30;0.30;;;8.70;99.90;;;;;;4964972;28;20027;-32
2023/03/14 03:46:22;;;;;;;0.30;0.30;;;8.70;99.90;;;;;;4965353;28;20034;-31
2023/03/14 03:48:48;;;;;;;0.47;0.47;;;8.70;99.90;;;;;;4963420;28;20413;-32
2023/03/14 03:51:16;;;;;;;0.20;0.20;;;8.70;99.90;;;;;;4968524;28;20463;-33
2023/03/14 03:53:42;;;;;;;0.38;0.38;;;8.70;99.90;;;;;;4968597;28;20486;-32
2023/03/14 03:56:08;;;;;;;0.30;0.30;;;8.60;99.90;;;;;;4965832;28;20772;-32
2023/03/14 03:58:34;;;;;;;0.40;0.40;;;8.60;99.90;;;;;;4961273;28;20618;-33
2023/03/14 04:01:00;;;;;;;0.40;0.40;;;8.60;99.90;;;;;;4963389;28;20051;-33
2023/03/14 04:03:26;;;;;;;0.40;0.40;;;8.60;99.90;;;;;;4963948;28;20086;-32
2023/03/14 04:06:02;;;;;;;1.27;0.90;;;8.50;99.90;;;;;;4972210;28;20037;-32
2023/03/14 04:08:28;;;;;;;0.30;0.30;;;8.60;99.90;;;;;;4961661;28;20477;-33
2023/03/14 04:10:57;;;;;;;0.32;0.32;;;8.50;99.90;;;;;;4969650;28;20034;-32
2023/03/14 04:13:22;;;;;;;0.38;0.38;;;8.50;99.90;;;;;;4960189;28;20034;-32
2023/03/14 04:15:48;;;;;;;0.40;0.40;;;8.50;99.90;;;;;;4967351;28;20034;-32
2023/03/14 04:18:13;;;;;;;0.47;0.47;;;8.50;99.90;;;;;;4967450;28;20157;-32
2023/03/14 04:20:39;;;;;;;0.40;0.40;;;8.50;99.90;;;;;;4968048;28;20030;-31
2023/03/14 04:23:04;;;;;;;0.98;0.93;;;8.50;99.90;;;;;;4963656;28;20680;-31
2023/03/14 04:25:30;;;;;;;5.28;2.60;;;8.50;99.90;;;;;;4959223;28;20037;-33
2023/03/14 04:27:56;;;;;;;0.40;0.40;;;8.40;99.90;;;;;;4961688;28;20081;-33
2023/03/14 04:30:21;;;;;;;0.43;0.43;;;8.40;99.90;;;;;;4964514;28;20417;-31
2023/03/14 04:32:47;;;;;;;0.50;0.50;;;8.40;99.90;;;;;;4961479;28;20575;-31
2023/03/14 04:35:13;;;;;;;0.75;0.75;;;8.40;99.90;;;;;;4960932;28;20031;-35
2023/03/14 04:37:38;;;;;;;0.40;0.40;;;8.40;99.90;;;;;;4964151;28;20532;-30
2023/03/14 04:40:06;;;;;;;0.43;0.43;;;8.40;99.90;;;;;;4969022;28;20545;-34
2023/03/14 04:42:32;;;;;;;1.55;0.60;;;8.40;99.90;;;;;;4958102;28;20026;-33
2023/03/14 04:44:58;;;;;;;0.55;0.38;;;8.30;99.90;;;;;;4966457;28;20023;-33
2023/03/14 04:47:23;;;;;;;0.50;0.50;;;8.30;99.90;;;;;;4965746;28;20751;-31
2023/03/14 04:49:49;;;;;;;0.70;0.50;;;8.30;99.90;;;;;;4967833;28;20035;-32
2023/03/14 04:52:14;;;;;;;0.40;0.40;;;8.30;99.90;;;;;;4966870;28;20496;-30
2023/03/14 04:54:40;;;;;;;0.38;0.38;;;8.30;99.90;;;;;;4968472;28;20050;-30
2023/03/14 04:57:05;;;;;;;0.63;0.30;;;8.30;99.90;;;;;;4962169;28;20062;-34
2023/03/14 04:59:31;;;;;;;0.50;0.50;;;8.30;99.90;;;;;;4961319;28;20094;-32
2023/03/14 05:01:56;;;;;;;0.30;0.30;;;8.30;99.90;;;;;;4966430;28;20036;-30
2023/03/14 05:04:22;;;;;;;0.55;0.55;;;8.30;99.90;;;;;;4965101;28;20496;-33
2023/03/14 05:06:47;;;;;;;0.60;0.60;;;8.30;99.90;;;;;;4968274;28;20488;-31
2023/03/14 05:09:14;;;;;;;0.50;0.50;;;8.30;99.90;;;;;;4964794;28;20495;-32
2023/03/14 05:11:40;;;;;;;0.70;0.70;;;8.20;99.90;;;;;;4963071;28;20033;-33
2023/03/14 05:14:05;;;;;;;0.40;0.40;;;8.20;99.90;;;;;;4964061;28;20469;-31
2023/03/14 05:16:31;;;;;;;0.40;0.40;;;8.20;99.90;;;;;;4966339;28;20423;-33
2023/03/14 05:18:57;;;;;;;0.32;0.32;;;8.20;99.90;;;;;;4966045;28;20094;-31
2023/03/14 05:21:22;;;;;;;0.45;0.45;;;8.20;99.90;;;;;;4965464;28;20081;-32
2023/03/14 05:23:48;;;;;;;0.32;0.32;;;8.20;99.90;;;;;;4963090;28;20059;-32
2023/03/14 05:26:16;;;;;;;0.50;0.50;;;8.20;99.90;;;;;;4960940;28;20050;-32
2023/03/14 05:28:42;;;;;;;0.75;0.60;;;8.10;99.90;;;;;;4963609;28;20023;-34
2023/03/14 05:31:08;;;;;;;0.50;0.40;;;8.10;99.90;;;;;;4968297;28;20041;-31
2023/03/14 05:33:34;;;;;;;0.45;0.45;;;8.10;99.90;;;;;;4969288;28;20034;-30
2023/03/14 05:35:59;;;;;;;0.50;0.50;;;8.10;99.90;;;;;;4963643;28;20038;-32
2023/03/14 05:38:25;;;;;;;0.50;0.50;;;8.10;99.90;;;;;;4960697;28;20031;-31
2023/03/14 05:40:51;;;;;;;0.40;0.40;;;8.10;99.90;;;;;;4961197;28;20026;-32
2023/03/14 05:43:16;;;;;;;1.98;0.60;;;8.10;99.90;;;;;;4967630;28;20396;-30
2023/03/14 05:45:43;;;;;;;0.40;0.40;;;8.10;99.90;;;;;;4964262;28;20031;-31
2023/03/14 05:48:09;;;;;;;0.40;0.40;;;8.10;99.90;;;;;;4964234;28;20481;-34
2023/03/14 05:50:34;;;;;;;0.30;0.30;;;8.00;99.90;;;;;;4959986;28;20046;-30
2023/03/14 05:53:00;;;;;;;1.23;0.73;;;8.00;99.90;;;;;;4961175;28;20088;-33
2023/03/14 05:55:25;;;;;;;0.95;0.50;;;8.00;99.90;;;;;;4962807;28;20485;-33
2023/03/14 05:57:53;;;;;;;0.40;0.40;;;8.00;99.90;;;;;;4964040;28;20547;-30
2023/03/14 06:00:19;;;;;;;0.30;0.30;;;8.00;99.90;;;;;;4956567;28;20067;-30
2023/03/14 06:02:44;;;;;;;1.63;0.57;;;8.00;99.90;;;;;;4937404;28;20052;-30
2023/03/14 06:05:10;;;;;;;0.50;0.50;;;8.00;99.90;;;;;;4937992;28;20042;-30
2023/03/14 06:07:35;;;;;;;0.40;0.40;;;8.00;99.90;;;;;;4939919;28;20776;-30
2023/03/14 06:10:02;;;;;;;0.40;0.40;;;8.10;99.90;;;;;;4944475;28;20061;-31
2023/03/14 06:12:28;;;;;;;0.90;0.90;;;8.00;99.90;;;;;;4938244;28;20023;-31
2023/03/14 06:14:53;;;;;;;0.40;0.40;;;8.00;99.90;;;;;;4936964;28;20041;-31
2023/03/14 06:17:19;;;;;;;0.90;0.60;;;8.00;99.90;;;;;;4935965;28;20031;-30
2023/03/14 06:19:45;;;;;;;0.90;0.50;;;8.00;99.90;;;;;;4942674;28;20207;-30
2023/03/14 06:22:10;;;;;;;2.17;0.50;;;8.00;99.90;;;;;;4953081;28;20092;-31
2023/03/14 06:24:36;;;;;;;0.55;0.50;;;8.00;99.90;;;;;;4964373;28;20054;-30
2023/03/14 06:27:02;;;;;;;0.50;0.50;;;8.00;99.90;;;;;;4961524;28;20121;-31
2023/03/14 06:29:29;;;;;;;0.55;0.55;;;8.10;99.90;;;;;;4952823;28;20031;-33
2023/03/14 06:31:54;;;;;;;0.38;0.38;;;8.10;99.90;;;;;;4956844;28;20073;-29
2023/03/14 06:34:20;;;;;;;0.60;0.60;;;8.20;99.90;;;;;;4960790;28;20110;-31
2023/03/14 06:36:45;;;;;;;0.40;0.40;;;8.20;99.90;;;;;;4969810;28;20295;-33
2023/03/14 06:39:11;;;;;;;0.30;0.30;;;8.20;99.90;;;;;;4967178;28;20034;-31
2023/03/14 06:41:37;;;;;;;0.47;0.47;;;8.20;99.90;;;;;;4968469;28;20476;-31
2023/03/14 06:44:02;;;;;;;0.40;0.40;;;8.20;99.90;;;;;;4962007;28;20054;-30
2023/03/14 06:46:28;;;;;;;1.05;1.05;;;8.30;99.90;;;;;;4952667;28;20039;-32
2023/03/14 06:48:54;;;;;;;0.60;0.60;;;8.30;99.90;;;;;;4945059;28;20059;-33
2023/03/14 06:51:19;;;;;;;0.38;0.38;;;8.30;99.90;;;;;;4965626;28;20134;-33
2023/03/14 06:53:45;;;;;;;0.50;0.50;;;8.30;99.90;;;;;;4969759;28;20023;-30
2023/03/14 06:56:10;;;;;;;0.50;0.47;;;8.30;99.90;;;;;;4958170;28;20031;-30
2023/03/14 06:58:36;;;;;;;0.30;0.30;;;8.40;99.90;;;;;;4935756;28;20036;-33
2023/03/14 07:01:02;;;;;;;0.40;0.40;;;8.40;99.90;;;;;;4933959;28;21810;-31
2023/03/14 07:03:27;;;;;;;1.08;0.50;;;8.40;99.90;;;;;;4935087;28;20038;-32
2023/03/14 07:05:53;;;;;;;0.98;0.65;;;8.40;99.90;;;;;;4940158;28;20796;-33
2023/03/14 07:08:19;;;;;;;1.23;0.82;;;8.40;99.90;;;;;;4935406;28;20027;-31
2023/03/14 07:10:45;;;;;;;0.80;0.80;;;8.40;99.90;;;;;;4935108;28;20496;-30
2023/03/14 07:13:10;;;;;;;1.10;0.80;;;8.40;99.90;;;;;;4944737;28;20023;-32
2023/03/14 07:15:36;;;;;;;0.70;0.70;;;8.40;99.90;;;;;;4949738;28;20401;-31
2023/03/14 07:18:02;;;;;;;0.82;0.68;;;8.40;99.90;;;;;;4956131;28;20125;-31
2023/03/14 07:20:28;;;;;;;0.45;0.45;;;8.40;99.90;;;;;;4957382;28;20041;-30
2023/03/14 07:22:54;;;;;;;0.75;0.40;;;8.40;99.90;;;;;;4966651;28;20042;-31
2023/03/14 07:25:19;;;;;;;0.50;0.50;;;8.50;99.90;;;;;;4969027;28;20441;-31
2023/03/14 07:27:47;;;;;;;0.77;0.60;;;8.40;99.90;;;;;;4969046;28;20041;-30
2023/03/14 07:30:14;;;;;;;0.50;0.50;;;8.50;99.90;;;;;;4963342;28;20212;-31
2023/03/14 07:32:40;;;;;;;0.40;0.40;;;8.50;99.90;;;;;;4967853;28;20037;-32
2023/03/14 07:35:06;;;;;;;0.40;0.40;;;8.60;99.90;;;;;;4967050;28;20684;-31
2023/03/14 07:37:32;;;;;;;0.32;0.32;;;8.60;99.90;;;;;;4970300;28;20027;-31
2023/03/14 07:39:57;;;;;;;0.45;0.45;;;8.60;99.90;;;;;;4959657;28;20045;-31
2023/03/14 07:42:23;;;;;;;0.47;0.47;;;8.60;99.90;;;;;;4964971;28;20149;-32
2023/03/14 07:44:49;;;;;;;0.30;0.30;;;8.60;99.90;;;;;;4971023;28;20344;-31
2023/03/14 07:47:14;;;;;;;0.40;0.40;;;8.60;99.90;;;;;;4989288;28;20031;-31
2023/03/14 07:49:40;;;;;;;0.88;0.60;;;8.60;99.90;;;;;;4965323;28;20045;-32
2023/03/14 07:52:05;;;;;;;0.75;0.50;;;8.70;99.90;;;;;;4968404;28;20035;-32
2023/03/14 07:54:31;;;;;;;0.60;0.60;;;8.70;99.90;;;;;;4964472;28;20023;-32
2023/03/14 07:57:00;;;;;;;0.40;0.40;;;8.70;99.90;;;;;;4964936;28;20140;-31
2023/03/14 07:59:26;;;;;;;0.30;0.30;;;8.70;99.90;;;;;;4962502;28;20037;-30
2023/03/14 08:01:52;;;;;;;0.88;0.55;;;8.70;99.90;;;;;;4967534;28;20039;-33
2023/03/14 08:04:17;;;;;;;0.52;0.50;;;8.80;99.90;;;;;;4958810;28;20041;-34
2023/03/14 08:06:43;;;;;;;0.50;0.50;;;8.80;99.90;;;;;;4970665;28;20069;-31
2023/03/14 08:09:09;;;;;;;0.40;0.40;;;8.90;99.90;;;;;;4969087;28;20085;-31
2023/03/14 08:11:34;;;;;;;0.73;0.70;;;8.90;99.90;;;;;;4963044;28;20149;-32
2023/03/14 08:14:00;;;;;;;0.50;0.50;;;8.90;99.90;;;;;;4958020;28;20034;-31
2023/03/14 08:16:26;;;;;;;0.50;0.50;;;8.90;99.90;;;;;;4971946;28;20115;-30
2023/03/14 08:18:51;;;;;;;0.47;0.47;;;9.00;99.90;;;;;;4972328;28;20042;-33
2023/03/14 08:21:17;;;;;;;3.88;1.67;;;9.00;99.90;;;;;;4969244;28;20515;-32
2023/03/14 08:23:42;;;;;;;0.43;0.43;;;9.10;99.90;;;;;;4965362;28;20055;-32
2023/03/14 08:26:08;;;;;;;1.30;0.60;;;9.20;99.90;;;;;;4962147;28;20093;-33
2023/03/14 08:28:34;;;;;;;0.50;0.50;;;9.20;99.90;;;;;;4965748;28;20023;-31
2023/03/14 08:31:00;;;;;;;1.17;0.70;;;9.30;99.90;;;;;;4959196;28;20046;-34
2023/03/14 08:33:28;;;;;;;1.10;0.60;;;9.40;99.90;;;;;;4966394;28;20031;-32
2023/03/14 08:35:55;;;;;;;0.40;0.40;;;9.50;99.90;;;;;;4962528;28;20418;-32
2023/03/14 08:38:20;;;;;;;0.60;0.60;;;9.60;99.90;;;;;;4984671;28;20042;-33
2023/03/14 08:40:46;;;;;;;0.50;0.50;;;9.70;99.90;;;;;;4970718;28;20106;-34
2023/03/14 08:43:12;;;;;;;0.40;0.40;;;9.70;99.90;;;;;;4959716;28;20035;-33
2023/03/14 08:45:38;;;;;;;0.50;0.50;;;9.90;99.90;;;;;;4970654;28;20038;-33
2023/03/14 08:48:04;;;;;;;0.50;0.50;;;9.90;99.90;;;;;;4964825;28;20118;-34
2023/03/14 08:50:29;;;;;;;0.40;0.40;;;10.00;99.90;;;;;;4963125;28;20034;-32
2023/03/14 08:52:55;;;;;;;0.65;0.52;;;10.10;99.90;;;;;;4967986;28;20038;-32
2023/03/14 08:55:21;;;;;;;0.40;0.40;;;10.10;99.90;;;;;;4962813;28;20049;-30
2023/03/14 08:57:46;;;;;;;0.30;0.30;;;10.20;99.90;;;;;;4965362;28;20093;-33
2023/03/14 09:00:14;;;;;;;0.95;0.50;;;10.20;99.90;;;;;;4966345;28;20054;-31
2023/03/14 09:02:41;;;;;;;0.75;0.75;;;10.30;99.90;;;;;;4962346;28;20784;-32
2023/03/14 09:05:07;;;;;;;0.40;0.40;;;10.40;99.90;;;;;;4961258;28;20088;-29
2023/03/14 09:07:33;;;;;;;0.40;0.40;;;10.40;99.90;;;;;;4963123;28;20048;-30
2023/03/14 09:09:58;;;;;;;0.77;0.50;;;10.50;99.90;;;;;;4959986;28;20401;-30
2023/03/14 09:12:24;;;;;;;0.63;0.60;;;10.50;99.90;;;;;;4964973;28;20034;-31
2023/03/14 09:14:49;;;;;;;0.40;0.40;;;10.40;99.90;;;;;;4964581;28;20026;-31
2023/03/14 09:17:15;;;;;;;0.65;0.65;;;10.60;99.90;;;;;;4966181;28;20034;-31
2023/03/14 09:19:41;;;;;;;0.35;0.35;;;10.60;99.90;;;;;;4958008;28;20030;-32
2023/03/14 09:22:06;;;;;;;1.23;0.40;;;10.70;99.90;;;;;;4965759;28;20504;-33
2023/03/14 09:24:32;;;;;;;0.30;0.30;;;10.70;99.90;;;;;;4968372;28;20184;-30
2023/03/14 09:26:57;;;;;;;0.40;0.40;;;10.80;99.90;;;;;;4967960;28;20425;-32
2023/03/14 09:29:24;;;;;;;0.40;0.38;;;11.00;99.90;;;;;;4966402;28;20035;-30
2023/03/14 09:31:50;;;;;;;1.33;0.40;;;11.10;99.90;;;;;;4947207;28;20043;-33
2023/03/14 09:34:15;;;;;;;0.28;0.25;;;11.00;99.90;;;;;;4952972;28;20408;-31
2023/03/14 09:36:43;;;;;;;0.30;0.30;;;10.90;99.90;;;;;;4962906;28;20027;-31
2023/03/14 09:39:09;;;;;;;0.85;0.40;;;11.00;99.90;;;;;;4951843;28;21590;-30
2023/03/14 09:41:42;;;;;;;0.40;0.40;;;11.00;99.90;;;;;;4956415;28;20110;-31
2023/03/14 09:44:14;;;;;;;0.30;0.30;;;11.30;99.90;;;;;;4957979;28;20393;-32
2023/03/14 09:46:42;;;;;;;0.50;0.50;;;11.30;99.90;;;;;;4952800;28;20515;-33
2023/03/14 09:49:13;;;;;;;;;;;11.40;99.90;;;;;;4960380;28;20115;-30
2023/03/14 09:51:40;;;;;;;1.13;0.70;;;11.50;99.90;;;;;;4957006;28;19918;-30
2023/03/14 09:54:16;;;;;;;1.20;0.35;;;11.50;99.90;;;;;;4963042;28;20328;-32
2023/03/14 09:56:41;;;;;;;0.30;0.30;;;11.40;99.90;;;;;;4957425;28;20505;-32
2023/03/14 09:59:13;;;;;;;0.45;0.45;;;11.50;99.90;;;;;;4962126;28;20061;-31
2023/03/14 10:01:38;;;;;;;0.85;0.38;;;11.40;99.90;;;;;;4956280;28;20177;-31
2023/03/14 10:04:10;;;;;;;0.57;0.40;;;11.40;99.90;;;;;;4959204;28;20130;-31
2023/03/14 10:06:36;;;;;;;0.40;0.40;;;11.40;99.90;;;;;;4959835;28;20043;-33
2023/03/14 10:09:03;;;;;;;0.50;0.50;;;11.50;99.90;;;;;;4963341;28;20395;-31
2023/03/14 10:11:28;;;;;;;0.57;0.57;;;11.70;99.90;;;;;;4959837;28;20180;-31
2023/03/14 10:14:19;;;;;;;0.40;0.40;;;11.70;99.90;;;;;;4957653;28;20389;-34
2023/03/14 10:16:45;;;;;;;1.35;0.50;;;11.60;99.90;;;;;;4961625;28;20038;-32
2023/03/14 10:19:13;;;;;;;1.23;0.40;;;11.70;99.90;;;;;;4960381;28;20018;-30
2023/03/14 10:21:44;;;;;;;0.28;0.28;;;11.60;99.90;;;;;;4964270;28;20065;-32
2023/03/14 10:24:31;;;;;;;0.40;0.40;;;11.70;99.90;;;;;;4967647;28;20109;-30
2023/03/14 10:27:03;;;;;;;0.43;0.40;;;11.90;99.90;;;;;;4968440;28;20023;-33
2023/03/14 10:29:50;;;;;;;0.80;0.50;;;12.30;99.90;;;;;;4965703;28;20035;-33
2023/03/14 10:32:20;;;;;;;0.60;0.60;;;12.50;99.90;;;;;;4964464;28;20519;-33
2023/03/14 10:35:06;;;;;;;0.30;0.30;;;12.60;99.90;;;;;;4965256;28;20019;-33
2023/03/14 10:37:32;;;;;;;0.50;0.40;;;12.60;99.90;;;;;;4959174;28;20031;-30
2023/03/14 10:40:05;;;;;;;1.33;0.35;;;12.40;99.90;;;;;;4965637;28;20042;-32
2023/03/14 10:42:41;;;;;;;0.32;0.30;;;12.30;99.90;;;;;;4955280;28;20027;-33
2023/03/14 10:45:32;;;;;;;0.50;0.50;;;12.40;99.90;;;;;;4963512;28;20555;-32
2023/03/14 10:48:07;;;;;;;0.40;0.40;;;12.30;99.90;;;;;;4964020;28;20056;-35
2023/03/14 10:50:33;;;;;;;1.60;0.45;;;12.30;99.90;;;;;;4963058;28;20042;-30
2023/03/14 10:53:05;;;;;;;0.20;0.20;;;12.30;99.90;;;;;;4962159;28;20050;-30
2023/03/14 10:55:42;;;;;;;0.40;0.40;;;12.40;99.90;;;;;;4962141;28;20067;-33
2023/03/14 10:58:29;;;;;;;2.75;0.38;;;12.40;99.90;;;;;;4963646;28;20458;-33
2023/03/14 11:01:24;;;;;;;0.30;0.30;;;12.40;99.90;;;;;;4958087;28;20042;-30
2023/03/14 11:04:00;;;;;;;0.30;0.30;;;12.30;99.90;;;;;;4967512;28;20047;-32
2023/03/14 11:06:44;;;;;;;0.35;0.35;;;12.20;99.90;;;;;;4955929;28;20030;-31
2023/03/14 11:09:32;;;;;;;0.32;0.32;;;12.10;99.90;;;;;;4966934;28;20034;-32
2023/03/14 11:12:19;;;;;;;0.40;0.40;;;12.10;99.90;;;;;;4957955;28;20054;-34
2023/03/14 11:14:54;;;;;;;0.32;0.32;;;12.10;99.90;;;;;;4960314;28;20758;-30
2023/03/14 11:17:41;;;;;;;0.30;0.30;;;12.20;99.90;;;;;;4956400;28;20039;-30
2023/03/14 11:20:30;;;;;;;0.50;0.30;;;12.40;99.90;;;;;;4961727;28;20122;-30
2023/03/14 11:23:20;;;;;;;0.30;0.30;;;12.50;99.90;;;;;;4956924;28;20036;-32
2023/03/14 11:26:00;;;;;;;0.30;0.30;;;12.50;99.90;;;;;;4962233;28;20504;-32
2023/03/14 11:28:38;;;;;;;0.90;0.32;;;12.40;99.90;;;;;;4964334;28;20425;-30
2023/03/14 11:31:09;;;;;;;0.30;0.30;;;12.30;99.90;;;;;;4958884;28;20030;-31
2023/03/14 11:33:39;;;;;;;0.32;0.32;;;12.20;99.90;;;;;;4962545;28;20027;-31
2023/03/14 11:36:11;;;;;;;0.38;0.38;;;12.10;99.90;;;;;;4965463;28;20397;-32
2023/03/14 11:38:47;;;;;;;1.02;0.60;;;12.00;99.90;;;;;;4952459;28;20030;-31
2023/03/14 11:41:32;;;;;;;0.28;0.28;;;11.90;99.90;;;;;;4965438;28;20396;-33
2023/03/14 11:44:01;;;;;;;0.30;0.30;;;11.80;99.90;;;;;;4956642;28;20486;-31
2023/03/14 11:46:48;;;;;;;;;;;11.80;99.90;;;;;;4968189;28;20031;-32
2023/03/14 11:49:34;;;;;;;0.30;0.30;;;11.70;99.90;;;;;;4967665;28;19918;-33
2023/03/14 11:52:05;;;;;;;0.30;0.30;;;11.80;99.90;;;;;;4961383;28;20038;-31
2023/03/14 11:54:46;;;;;;;0.38;0.38;;;11.80;99.90;;;;;;4961527;28;20061;-32
2023/03/14 11:57:20;;;;;;;0.28;0.20;;;11.80;99.90;;;;;;4962743;28;20117;-31
2023/03/14 12:00:08;;;;;;;0.20;0.20;;;11.90;99.90;;;;;;4963673;28;20034;-30
2023/03/14 12:02:48;;;;;;;0.77;0.30;;;11.90;99.90;;;;;;4965160;28;20421;-31
2023/03/14 12:05:42;;;;;;;0.30;0.30;;;12.00;99.90;;;;;;4960269;28;20832;-33
2023/03/14 12:08:08;;;;;;;0.40;0.40;;;12.10;99.90;;;;;;4960231;28;20035;-31
2023/03/14 12:11:03;;;;;;;0.43;0.40;;;12.10;99.90;;;;;;4961714;28;20030;-33
2023/03/14 12:13:36;;;;;;;0.40;0.25;;;12.10;99.90;;;;;;4965284;28;20049;-31
2023/03/14 12:16:07;;;;;;;0.30;0.30;;;12.20;99.90;;;;;;4962305;28;20023;-31
2023/03/14 12:18:39;;;;;;;0.55;0.30;;;12.20;99.90;;;;;;4962638;28;20057;-29
2023/03/14 12:21:07;;;;;;;0.40;0.40;;;12.10;99.90;;;;;;4961545;28;20591;-34
2023/03/14 12:23:57;;;;;;;0.30;0.30;;;12.10;99.90;;;;;;4960168;28;20081;-31
2023/03/14 12:26:25;;;;;;;1.75;0.45;;;11.90;99.90;;;;;;4964883;28;20080;-30
2023/03/14 12:29:17;;;;;;;0.40;0.40;;;11.90;99.90;;;;;;4964509;28;20052;-32
2023/03/14 12:31:45;;;;;;;0.30;0.30;;;11.70;99.90;;;;;;4963870;28;20065;-29
2023/03/14 12:34:11;;;;;;;0.30;0.30;;;11.60;99.90;;;;;;4965487;28;20031;-31
2023/03/14 12:36:49;;;;;;;0.20;0.20;;;11.60;99.90;;;;;;4972832;28;20531;-31
2023/03/14 12:39:29;;;;;;;0.50;0.50;;;11.50;99.90;;;;;;4965362;28;20058;-34
2023/03/14 12:42:20;;;;;;;0.30;0.30;;;11.40;99.90;;;;;;4965913;28;20445;-33
2023/03/14 12:44:50;;;;;;;0.35;0.35;;;11.40;99.90;;;;;;4966947;28;20043;-29
2023/03/14 12:47:19;;;;;;;1.20;0.28;;;11.40;99.90;;;;;;4969468;28;20023;-32
2023/03/14 12:49:57;;;;;;;;;;;11.40;99.90;;;;;;4966476;28;20080;-32
2023/03/14 12:52:55;;;;;;;0.70;0.55;;;11.50;99.90;;;;;;4967836;28;19969;-30
2023/03/14 12:55:43;;;;;;;0.60;0.32;;;11.40;99.90;;;;;;4968979;28;20049;-30
2023/03/14 12:58:22;;;;;;;0.30;0.30;;;11.30;99.90;;;;;;4980289;28;20358;-33
2023/03/14 13:00:55;;;;;;;0.32;0.30;;;11.20;99.90;;;;;;4967441;28;20133;-30
2023/03/14 13:03:28;;;;;;;0.28;0.28;;;11.30;99.90;;;;;;4960310;28;20385;-33
2023/03/14 13:06:04;;;;;;;0.38;0.38;;;11.20;99.90;;;;;;4966231;28;20034;-32